Fire Weather Observation
Issued by NWS Grand Junction, CO

Home | Current Version | Previous Version | Text Only | Print | Product List | Glossary Off
Versions: 1 2 3 4 5 6 7 8 9 10 11 12 13 14 15 16 17 18 19 20 21 22 23 24 25 26 27 28 29 30 31 32 33 34 35 36 37 38 39 40 41 42 43 44 45 46 47 48 49 50

000
SHUS65 KGJT 282014
FWOGJT

DAILY FIRE WEATHER OBSERVATION
NATIONAL WEATHER SERVICE GRAND JUNCTION CO
212 PM MDT FRI AUG 28 2015

STATE OF THE WEATHER (W)               0
DRY BULB TEMPERATURE                   83   DEGREES FAHRENHEIT
RELATIVE HUMIDITY (RH)                 32   PERCENT
LIGHTNING ACTIVITY LEVEL
  (LAL - MIDNIGHT TO 2 PM)             3
WIND DIRECTION                         225  DEGREES (C IF CALM)
WIND SPEED                             9    MPH
MAX TEMP (2 PM - 2 PM)                 83   DEGREES FAHRENHEIT
MIN TEMP (2 PM - 2 PM)                 55   DEGREES FAHRENHEIT
MAX RH (2 PM - 2 PM)                   90   PERCENT
MIN RH (2 PM - 2 PM)                   32   PERCENT
PCPN DURATION                          0.6  HOURS
PCPN AMT (2 PM - 2 PM)                 0.01 INCHES
LAL (2 PM - 2 PM)                      5

$$

METAR KGJT 281953Z 22008KT 10SM CLR 28/10 A3021 RMK AO2 SLP163
      T02830100


USA.gov is the U.S. government's official web portal to all federal, state and local government web resources and services.